Ana Sayfa
METAR-TAF:

METAR-TAF

Havaalanları :

Edward F. Knapp State Airport

Barre / Montpelier, Vermont, Amerika Birleşik Devletleri

Enlem: 44-12-17N, Boylam: 072-33-58W, yükseklik: 355 m

Güncel hava durumu gözlemi

Rapor saat 10:51 UTC de 21 dakika önce yapıldı.
Sakin rüzgar
Sıcaklık -2°C
Nem 74%
Basınç 1013 hPa
Görüş mesafesi: 16.1 km
Açık gökyüzü

METAR: KMPV 071051Z AUTO 00000KT 10SM CLR M02/M06 A2991 RMK AO2 SLP139 T10171056

Saat: 07:12 (11:12 UTC)

Tahmin

Rapor saat 05:24 UTC de 5 saat ve 48 dakika önce yapıldı.
Ayın 07'si saat 06 UTC'den ayın 08'si saat 06 UTC'ye kadar geçerli Tahmin
Rüzgar kuzeybatıdan 6 kt
Görüş mesafesi: 10 km
10000 ft yükseklikte parçalı bulutlu

TAF: KMPV 070524Z 0706/0806 32006KT P6SM SCT100

4.000'den fazla havaalanı için hava durumu gözlemleri ve tahminleri (METAR ve TAF raporları).

Kullanılabilir istasyonlar harita üzerinde sarı ve kırmızı noktalarla gösterilir.

İstasyonun adını görmek için fareyi noktanın üzerinde gezdirin.

Sonrasında hava gözlem ve tahminlerini görmek için tıklayın.

Haritayı değiştirmek için: yaklaştırmak için siyah artı işaretli yeşil düğmeye ve uzaklaştırmak için de eksi işaretli düğmeye hızla tıklayın; bitişik haritalar için yeşil okları kullanın.


METAR-TAF: